sensor_id;sensor_type;location;lat;lon;timestamp;temperature;humidity
66096;SHT31;53861;53.422;14.530;2023-09-19T00:00:21;19.16;88.75
66096;SHT31;53861;53.422;14.530;2023-09-19T00:02:54;19.10;89.00
66096;SHT31;53861;53.422;14.530;2023-09-19T00:05:25;19.12;89.05
66096;SHT31;53861;53.422;14.530;2023-09-19T00:07:54;19.05;89.39
66096;SHT31;53861;53.422;14.530;2023-09-19T00:10:22;19.00;89.53
66096;SHT31;53861;53.422;14.530;2023-09-19T00:12:52;18.92;89.82
66096;SHT31;53861;53.422;14.530;2023-09-19T00:15:21;18.99;89.56
66096;SHT31;53861;53.422;14.530;2023-09-19T00:17:49;18.95;89.58
66096;SHT31;53861;53.422;14.530;2023-09-19T00:20:18;18.95;89.66
66096;SHT31;53861;53.422;14.530;2023-09-19T00:22:47;18.93;89.81
66096;SHT31;53861;53.422;14.530;2023-09-19T00:25:15;18.95;89.59
66096;SHT31;53861;53.422;14.530;2023-09-19T00:27:42;18.93;89.71
66096;SHT31;53861;53.422;14.530;2023-09-19T00:30:12;18.91;89.92
66096;SHT31;53861;53.422;14.530;2023-09-19T00:32:45;18.85;90.23
66096;SHT31;53861;53.422;14.530;2023-09-19T00:35:13;18.75;90.40
66096;SHT31;53861;53.422;14.530;2023-09-19T00:37:41;18.81;90.22
66096;SHT31;53861;53.422;14.530;2023-09-19T00:40:09;18.68;90.73
66096;SHT31;53861;53.422;14.530;2023-09-19T00:42:38;18.76;90.51
66096;SHT31;53861;53.422;14.530;2023-09-19T00:45:07;18.63;90.88
66096;SHT31;53861;53.422;14.530;2023-09-19T00:47:39;18.65;90.81
66096;SHT31;53861;53.422;14.530;2023-09-19T00:50:08;18.68;90.70
66096;SHT31;53861;53.422;14.530;2023-09-19T00:52:40;18.63;90.98
66096;SHT31;53861;53.422;14.530;2023-09-19T00:55:10;18.71;90.70
66096;SHT31;53861;53.422;14.530;2023-09-19T00:57:39;18.73;90.62
66096;SHT31;53861;53.422;14.530;2023-09-19T01:00:08;18.63;90.89
66096;SHT31;53861;53.422;14.530;2023-09-19T01:02:43;18.65;90.80
66096;SHT31;53861;53.422;14.530;2023-09-19T01:05:11;18.61;90.86
66096;SHT31;53861;53.422;14.530;2023-09-19T01:07:38;18.61;90.98
66096;SHT31;53861;53.422;14.530;2023-09-19T01:10:08;18.61;90.93
66096;SHT31;53861;53.422;14.530;2023-09-19T01:12:45;18.56;91.21
66096;SHT31;53861;53.422;14.530;2023-09-19T01:15:21;18.54;91.28
66096;SHT31;53861;53.422;14.530;2023-09-19T01:17:57;18.55;91.08
66096;SHT31;53861;53.422;14.530;2023-09-19T01:20:33;18.58;91.02
66096;SHT31;53861;53.422;14.530;2023-09-19T01:23:15;18.54;91.14
66096;SHT31;53861;53.422;14.530;2023-09-19T01:26:07;18.47;91.31
66096;SHT31;53861;53.422;14.530;2023-09-19T01:28:51;18.47;91.41
66096;SHT31;53861;53.422;14.530;2023-09-19T01:31:23;18.42;91.56
66096;SHT31;53861;53.422;14.530;2023-09-19T01:33:58;18.35;91.84
66096;SHT31;53861;53.422;14.530;2023-09-19T01:36:28;18.31;91.93
66096;SHT31;53861;53.422;14.530;2023-09-19T01:38:57;18.30;92.03
66096;SHT31;53861;53.422;14.530;2023-09-19T01:41:38;18.35;91.84
66096;SHT31;53861;53.422;14.530;2023-09-19T01:44:12;18.34;91.83
66096;SHT31;53861;53.422;14.530;2023-09-19T01:46:45;18.24;91.98
66096;SHT31;53861;53.422;14.530;2023-09-19T01:49:22;18.24;92.11
66096;SHT31;53861;53.422;14.530;2023-09-19T01:51:55;18.22;92.15
66096;SHT31;53861;53.422;14.530;2023-09-19T01:54:27;18.10;92.65
66096;SHT31;53861;53.422;14.530;2023-09-19T01:57:01;18.18;92.29
66096;SHT31;53861;53.422;14.530;2023-09-19T01:59:36;18.18;92.39
66096;SHT31;53861;53.422;14.530;2023-09-19T02:02:08;18.17;92.22
66096;SHT31;53861;53.422;14.530;2023-09-19T02:04:36;18.18;92.21
66096;SHT31;53861;53.422;14.530;2023-09-19T02:07:03;18.17;92.31
66096;SHT31;53861;53.422;14.530;2023-09-19T02:09:34;18.10;92.40
66096;SHT31;53861;53.422;14.530;2023-09-19T02:12:05;18.10;92.46
66096;SHT31;53861;53.422;14.530;2023-09-19T02:14:33;18.10;92.39
66096;SHT31;53861;53.422;14.530;2023-09-19T02:17:02;18.04;92.61
66096;SHT31;53861;53.422;14.530;2023-09-19T02:19:32;18.01;92.78
66096;SHT31;53861;53.422;14.530;2023-09-19T02:22:00;17.93;93.04
66096;SHT31;53861;53.422;14.530;2023-09-19T02:24:29;18.01;92.74
66096;SHT31;53861;53.422;14.530;2023-09-19T02:26:57;17.93;92.89
66096;SHT31;53861;53.422;14.530;2023-09-19T02:29:26;17.93;92.89
66096;SHT31;53861;53.422;14.530;2023-09-19T02:31:54;17.83;93.02
66096;SHT31;53861;53.422;14.530;2023-09-19T02:34:22;17.86;92.88
66096;SHT31;53861;53.422;14.530;2023-09-19T02:36:53;17.79;93.28
66096;SHT31;53861;53.422;14.530;2023-09-19T02:39:21;17.74;93.37
66096;SHT31;53861;53.422;14.530;2023-09-19T02:41:49;17.71;93.51
66096;SHT31;53861;53.422;14.530;2023-09-19T02:44:17;17.71;93.42
66096;SHT31;53861;53.422;14.530;2023-09-19T02:46:46;17.73;93.20
66096;SHT31;53861;53.422;14.530;2023-09-19T02:49:14;17.70;93.20
66096;SHT31;53861;53.422;14.530;2023-09-19T02:51:44;17.63;93.46
66096;SHT31;53861;53.422;14.530;2023-09-19T02:54:13;17.62;93.60
66096;SHT31;53861;53.422;14.530;2023-09-19T02:56:41;17.56;93.88
66096;SHT31;53861;53.422;14.530;2023-09-19T02:59:09;17.60;93.80
66096;SHT31;53861;53.422;14.530;2023-09-19T03:01:43;17.66;93.46
66096;SHT31;53861;53.422;14.530;2023-09-19T03:04:12;17.69;93.26
66096;SHT31;53861;53.422;14.530;2023-09-19T03:06:39;17.66;93.30
66096;SHT31;53861;53.422;14.530;2023-09-19T03:09:08;17.63;93.30
66096;SHT31;53861;53.422;14.530;2023-09-19T03:11:39;17.54;93.56
66096;SHT31;53861;53.422;14.530;2023-09-19T03:14:08;17.49;93.84
66096;SHT31;53861;53.422;14.530;2023-09-19T03:16:36;17.45;93.98
66096;SHT31;53861;53.422;14.530;2023-09-19T03:19:04;17.43;93.92
66096;SHT31;53861;53.422;14.530;2023-09-19T03:21:31;17.40;93.92
66096;SHT31;53861;53.422;14.530;2023-09-19T03:23:59;17.36;93.85
66096;SHT31;53861;53.422;14.530;2023-09-19T03:26:26;17.39;94.03
66096;SHT31;53861;53.422;14.530;2023-09-19T03:28:55;17.33;94.01
66096;SHT31;53861;53.422;14.530;2023-09-19T03:31:23;17.30;93.99
66096;SHT31;53861;53.422;14.530;2023-09-19T03:33:50;17.33;93.95
66096;SHT31;53861;53.422;14.530;2023-09-19T03:36:18;17.33;93.84
66096;SHT31;53861;53.422;14.530;2023-09-19T03:38:45;17.35;93.62
66096;SHT31;53861;53.422;14.530;2023-09-19T03:41:12;17.35;93.38
66096;SHT31;53861;53.422;14.530;2023-09-19T03:43:44;17.39;93.33
66096;SHT31;53861;53.422;14.530;2023-09-19T03:46:12;17.36;93.17
66096;SHT31;53861;53.422;14.530;2023-09-19T03:48:41;17.36;93.29
66096;SHT31;53861;53.422;14.530;2023-09-19T03:51:08;17.35;93.43
66096;SHT31;53861;53.422;14.530;2023-09-19T03:53:36;17.33;93.10
66096;SHT31;53861;53.422;14.530;2023-09-19T03:56:03;17.33;93.27
66096;SHT31;53861;53.422;14.530;2023-09-19T03:58:31;17.33;92.95
66096;SHT31;53861;53.422;14.530;2023-09-19T04:01:00;17.45;92.42
66096;SHT31;53861;53.422;14.530;2023-09-19T04:03:29;17.45;92.12
66096;SHT31;53861;53.422;14.530;2023-09-19T04:06:01;17.43;92.46
66096;SHT31;53861;53.422;14.530;2023-09-19T04:08:28;17.43;92.51
66096;SHT31;53861;53.422;14.530;2023-09-19T04:10:55;17.35;92.31
66096;SHT31;53861;53.422;14.530;2023-09-19T04:13:23;17.33;92.35
66096;SHT31;53861;53.422;14.530;2023-09-19T04:15:50;17.28;92.43
66096;SHT31;53861;53.422;14.530;2023-09-19T04:18:18;17.26;92.57
66096;SHT31;53861;53.422;14.530;2023-09-19T04:20:49;17.22;92.77
66096;SHT31;53861;53.422;14.530;2023-09-19T04:23:16;17.18;92.89
66096;SHT31;53861;53.422;14.530;2023-09-19T04:25:45;17.15;92.84
66096;SHT31;53861;53.422;14.530;2023-09-19T04:28:13;17.12;92.65
66096;SHT31;53861;53.422;14.530;2023-09-19T04:30:41;17.18;92.49
66096;SHT31;53861;53.422;14.530;2023-09-19T04:33:08;17.14;92.47
66096;SHT31;53861;53.422;14.530;2023-09-19T04:35:36;17.19;92.03
66096;SHT31;53861;53.422;14.530;2023-09-19T04:38:06;17.15;92.11
66096;SHT31;53861;53.422;14.530;2023-09-19T04:40:33;17.15;91.89
66096;SHT31;53861;53.422;14.530;2023-09-19T04:43:01;17.20;91.67
66096;SHT31;53861;53.422;14.530;2023-09-19T04:45:29;17.22;91.51
66096;SHT31;53861;53.422;14.530;2023-09-19T04:47:56;17.22;91.52
66096;SHT31;53861;53.422;14.530;2023-09-19T04:50:23;17.11;91.92
66096;SHT31;53861;53.422;14.530;2023-09-19T04:52:53;17.07;91.91
66096;SHT31;53861;53.422;14.530;2023-09-19T04:55:22;17.01;91.79
66096;SHT31;53861;53.422;14.530;2023-09-19T04:57:50;17.02;91.72
66096;SHT31;53861;53.422;14.530;2023-09-19T05:00:19;17.05;92.20
66096;SHT31;53861;53.422;14.530;2023-09-19T05:02:49;16.99;91.95
66096;SHT31;53861;53.422;14.530;2023-09-19T05:05:18;16.99;91.80
66096;SHT31;53861;53.422;14.530;2023-09-19T05:07:46;17.02;91.66
66096;SHT31;53861;53.422;14.530;2023-09-19T05:10:14;17.07;91.59
66096;SHT31;53861;53.422;14.530;2023-09-19T05:12:43;17.04;91.74
66096;SHT31;53861;53.422;14.530;2023-09-19T05:15:13;17.02;91.75
66096;SHT31;53861;53.422;14.530;2023-09-19T05:17:47;17.07;91.57
66096;SHT31;53861;53.422;14.530;2023-09-19T05:20:16;17.07;91.62
66096;SHT31;53861;53.422;14.530;2023-09-19T05:22:46;17.05;91.86
66096;SHT31;53861;53.422;14.530;2023-09-19T05:25:14;16.95;92.11
66096;SHT31;53861;53.422;14.530;2023-09-19T05:27:44;16.91;92.13
66096;SHT31;53861;53.422;14.530;2023-09-19T05:30:12;16.98;91.72
66096;SHT31;53861;53.422;14.530;2023-09-19T05:32:41;17.04;91.49
66096;SHT31;53861;53.422;14.530;2023-09-19T05:35:09;17.07;91.72
66096;SHT31;53861;53.422;14.530;2023-09-19T05:37:40;16.99;90.94
66096;SHT31;53861;53.422;14.530;2023-09-19T05:40:09;17.11;90.36
66096;SHT31;53861;53.422;14.530;2023-09-19T05:42:36;17.25;90.10
66096;SHT31;53861;53.422;14.530;2023-09-19T05:45:08;17.32;89.30
66096;SHT31;53861;53.422;14.530;2023-09-19T05:47:38;17.40;88.71
66096;SHT31;53861;53.422;14.530;2023-09-19T05:50:06;17.35;89.03
66096;SHT31;53861;53.422;14.530;2023-09-19T05:52:35;17.46;88.39
66096;SHT31;53861;53.422;14.530;2023-09-19T05:55:03;17.40;88.63
66096;SHT31;53861;53.422;14.530;2023-09-19T05:57:32;17.35;88.06
66096;SHT31;53861;53.422;14.530;2023-09-19T05:59:59;17.47;87.92
66096;SHT31;53861;53.422;14.530;2023-09-19T06:02:28;17.62;87.26
66096;SHT31;53861;53.422;14.530;2023-09-19T06:04:56;17.51;86.99
66096;SHT31;53861;53.422;14.530;2023-09-19T06:07:23;17.77;87.08
66096;SHT31;53861;53.422;14.530;2023-09-19T06:09:52;17.74;86.41
66096;SHT31;53861;53.422;14.530;2023-09-19T06:12:19;17.71;86.59
66096;SHT31;53861;53.422;14.530;2023-09-19T06:14:47;17.76;86.79
66096;SHT31;53861;53.422;14.530;2023-09-19T06:17:15;17.70;86.12
66096;SHT31;53861;53.422;14.530;2023-09-19T06:19:44;17.86;86.49
66096;SHT31;53861;53.422;14.530;2023-09-19T06:22:15;18.07;85.55
66096;SHT31;53861;53.422;14.530;2023-09-19T06:24:43;18.51;85.20
66096;SHT31;53861;53.422;14.530;2023-09-19T06:27:11;19.24;82.31
66096;SHT31;53861;53.422;14.530;2023-09-19T06:29:39;19.23;82.42
66096;SHT31;53861;53.422;14.530;2023-09-19T06:32:07;20.33;77.20
66096;SHT31;53861;53.422;14.530;2023-09-19T06:34:36;20.43;77.80
66096;SHT31;53861;53.422;14.530;2023-09-19T06:37:05;21.54;74.13
66096;SHT31;53861;53.422;14.530;2023-09-19T06:39:33;20.50;76.30
66096;SHT31;53861;53.422;14.530;2023-09-19T06:42:01;20.15;76.63
66096;SHT31;53861;53.422;14.530;2023-09-19T06:44:28;20.48;75.29
66096;SHT31;53861;53.422;14.530;2023-09-19T06:47:00;20.04;77.11
66096;SHT31;53861;53.422;14.530;2023-09-19T06:49:28;20.35;77.88
66096;SHT31;53861;53.422;14.530;2023-09-19T06:51:56;20.26;76.75
66096;SHT31;53861;53.422;14.530;2023-09-19T06:54:26;20.53;77.02
66096;SHT31;53861;53.422;14.530;2023-09-19T06:56:57;20.29;75.49
66096;SHT31;53861;53.422;14.530;2023-09-19T06:59:24;19.81;77.61
66096;SHT31;53861;53.422;14.530;2023-09-19T07:01:51;21.24;74.75
66096;SHT31;53861;53.422;14.530;2023-09-19T07:04:19;21.66;71.10
66096;SHT31;53861;53.422;14.530;2023-09-19T07:06:49;21.20;73.26
66096;SHT31;53861;53.422;14.530;2023-09-19T07:09:17;21.35;73.82
66096;SHT31;53861;53.422;14.530;2023-09-19T07:11:47;21.06;73.71
66096;SHT31;53861;53.422;14.530;2023-09-19T07:14:16;20.81;73.20
66096;SHT31;53861;53.422;14.530;2023-09-19T07:16:44;20.80;73.62
66096;SHT31;53861;53.422;14.530;2023-09-19T07:19:13;21.06;72.75
66096;SHT31;53861;53.422;14.530;2023-09-19T07:21:42;21.55;73.06
66096;SHT31;53861;53.422;14.530;2023-09-19T07:24:09;22.49;69.62
66096;SHT31;53861;53.422;14.530;2023-09-19T07:26:36;22.26;70.48
66096;SHT31;53861;53.422;14.530;2023-09-19T07:29:05;22.35;68.89
66096;SHT31;53861;53.422;14.530;2023-09-19T07:31:34;22.15;68.68
66096;SHT31;53861;53.422;14.530;2023-09-19T07:34:02;22.97;66.76
66096;SHT31;53861;53.422;14.530;2023-09-19T07:36:30;22.80;66.22
66096;SHT31;53861;53.422;14.530;2023-09-19T07:38:58;23.28;66.52
66096;SHT31;53861;53.422;14.530;2023-09-19T07:41:26;23.73;65.23
66096;SHT31;53861;53.422;14.530;2023-09-19T07:43:53;23.28;66.52
66096;SHT31;53861;53.422;14.530;2023-09-19T07:46:21;24.44;62.71
66096;SHT31;53861;53.422;14.530;2023-09-19T07:48:50;24.65;63.28
66096;SHT31;53861;53.422;14.530;2023-09-19T07:51:17;23.59;64.61
66096;SHT31;53861;53.422;14.530;2023-09-19T07:53:45;23.37;65.68
66096;SHT31;53861;53.422;14.530;2023-09-19T07:56:14;24.44;63.15
66096;SHT31;53861;53.422;14.530;2023-09-19T07:58:41;23.49;66.93
66096;SHT31;53861;53.422;14.530;2023-09-19T08:01:11;24.59;65.09
66096;SHT31;53861;53.422;14.530;2023-09-19T08:03:41;23.35;64.00
66096;SHT31;53861;53.422;14.530;2023-09-19T08:06:10;23.15;64.65
66096;SHT31;53861;53.422;14.530;2023-09-19T08:08:37;23.04;65.63
66096;SHT31;53861;53.422;14.530;2023-09-19T08:11:05;23.07;65.76
66096;SHT31;53861;53.422;14.530;2023-09-19T08:13:37;22.52;64.99
66096;SHT31;53861;53.422;14.530;2023-09-19T08:16:09;23.49;62.85
66096;SHT31;53861;53.422;14.530;2023-09-19T08:18:37;24.43;61.32
66096;SHT31;53861;53.422;14.530;2023-09-19T08:21:07;25.23;59.97
66096;SHT31;53861;53.422;14.530;2023-09-19T08:23:36;23.42;61.54
66096;SHT31;53861;53.422;14.530;2023-09-19T08:26:04;23.15;63.64
66096;SHT31;53861;53.422;14.530;2023-09-19T08:28:33;22.53;64.28
66096;SHT31;53861;53.422;14.530;2023-09-19T08:31:02;22.49;65.40
66096;SHT31;53861;53.422;14.530;2023-09-19T08:33:31;22.30;64.21
66096;SHT31;53861;53.422;14.530;2023-09-19T08:35:59;21.71;65.67
66096;SHT31;53861;53.422;14.530;2023-09-19T08:38:28;21.79;66.59
66096;SHT31;53861;53.422;14.530;2023-09-19T08:40:57;21.68;65.14
66096;SHT31;53861;53.422;14.530;2023-09-19T08:43:25;21.45;66.25
66096;SHT31;53861;53.422;14.530;2023-09-19T08:45:58;22.16;62.96
66096;SHT31;53861;53.422;14.530;2023-09-19T08:48:31;21.52;64.56
66096;SHT31;53861;53.422;14.530;2023-09-19T08:51:02;20.86;65.83
66096;SHT31;53861;53.422;14.530;2023-09-19T08:53:39;20.80;66.68
66096;SHT31;53861;53.422;14.530;2023-09-19T08:56:09;20.76;66.87
66096;SHT31;53861;53.422;14.530;2023-09-19T08:58:44;20.57;66.67
66096;SHT31;53861;53.422;14.530;2023-09-19T09:01:15;20.80;67.58
66096;SHT31;53861;53.422;14.530;2023-09-19T09:03:43;21.07;65.69
66096;SHT31;53861;53.422;14.530;2023-09-19T09:06:14;21.21;64.50
66096;SHT31;53861;53.422;14.530;2023-09-19T09:08:43;21.54;63.90
66096;SHT31;53861;53.422;14.530;2023-09-19T09:11:11;20.59;63.65
66096;SHT31;53861;53.422;14.530;2023-09-19T09:13:39;20.99;63.66
66096;SHT31;53861;53.422;14.530;2023-09-19T09:16:07;21.23;64.15
66096;SHT31;53861;53.422;14.530;2023-09-19T09:18:36;22.52;60.91
66096;SHT31;53861;53.422;14.530;2023-09-19T09:21:03;22.93;59.93
66096;SHT31;53861;53.422;14.530;2023-09-19T09:23:31;24.17;56.36
66096;SHT31;53861;53.422;14.530;2023-09-19T09:26:00;23.72;57.13
66096;SHT31;53861;53.422;14.530;2023-09-19T09:28:31;24.26;57.94
66096;SHT31;53861;53.422;14.530;2023-09-19T09:31:00;22.17;60.44
66096;SHT31;53861;53.422;14.530;2023-09-19T09:33:28;22.47;59.42
66096;SHT31;53861;53.422;14.530;2023-09-19T09:35:58;22.15;61.35
66096;SHT31;53861;53.422;14.530;2023-09-19T09:38:29;22.74;58.94
66096;SHT31;53861;53.422;14.530;2023-09-19T09:41:00;24.46;55.96
66096;SHT31;53861;53.422;14.530;2023-09-19T09:43:36;25.42;54.00
66096;SHT31;53861;53.422;14.530;2023-09-19T09:46:12;25.39;52.59
66096;SHT31;53861;53.422;14.530;2023-09-19T09:48:58;24.33;55.51
66096;SHT31;53861;53.422;14.530;2023-09-19T09:51:44;26.45;52.84
66096;SHT31;53861;53.422;14.530;2023-09-19T09:54:14;26.84;51.56
66096;SHT31;53861;53.422;14.530;2023-09-19T09:56:56;27.06;51.18
66096;SHT31;53861;53.422;14.530;2023-09-19T09:59:44;26.05;49.18
66096;SHT31;53861;53.422;14.530;2023-09-19T10:02:14;25.04;51.49
66096;SHT31;53861;53.422;14.530;2023-09-19T10:04:46;26.41;50.28
66096;SHT31;53861;53.422;14.530;2023-09-19T10:07:29;27.16;48.39
66096;SHT31;53861;53.422;14.530;2023-09-19T10:10:02;28.25;47.02
66096;SHT31;53861;53.422;14.530;2023-09-19T10:12:46;27.51;51.25
66096;SHT31;53861;53.422;14.530;2023-09-19T10:15:16;27.40;48.33
66096;SHT31;53861;53.422;14.530;2023-09-19T10:17:46;27.25;46.83
66096;SHT31;53861;53.422;14.530;2023-09-19T10:20:15;27.51;45.28
66096;SHT31;53861;53.422;14.530;2023-09-19T10:23:04;26.99;45.19
66096;SHT31;53861;53.422;14.530;2023-09-19T10:25:37;26.55;45.64
66096;SHT31;53861;53.422;14.530;2023-09-19T10:28:08;27.96;47.69
66096;SHT31;53861;53.422;14.530;2023-09-19T10:30:38;28.47;45.21
66096;SHT31;53861;53.422;14.530;2023-09-19T10:33:11;25.61;45.99
66096;SHT31;53861;53.422;14.530;2023-09-19T10:35:40;25.38;51.59
66096;SHT31;53861;53.422;14.530;2023-09-19T10:38:10;27.57;46.34
66096;SHT31;53861;53.422;14.530;2023-09-19T10:40:39;28.11;44.52
66096;SHT31;53861;53.422;14.530;2023-09-19T10:43:15;28.20;49.10
66096;SHT31;53861;53.422;14.530;2023-09-19T10:45:45;26.47;46.01
66096;SHT31;53861;53.422;14.530;2023-09-19T10:48:15;25.67;51.28
66096;SHT31;53861;53.422;14.530;2023-09-19T10:50:51;26.34;48.73
66096;SHT31;53861;53.422;14.530;2023-09-19T10:53:20;27.53;45.60
66096;SHT31;53861;53.422;14.530;2023-09-19T10:55:51;29.68;43.90
66096;SHT31;53861;53.422;14.530;2023-09-19T10:58:28;29.44;40.65
66096;SHT31;53861;53.422;14.530;2023-09-19T11:00:57;30.94;43.47
66096;SHT31;53861;53.422;14.530;2023-09-19T11:03:31;30.25;42.80
66096;SHT31;53861;53.422;14.530;2023-09-19T11:06:06;29.26;42.40
66096;SHT31;53861;53.422;14.530;2023-09-19T11:09:09;30.39;40.95
66096;SHT31;53861;53.422;14.530;2023-09-19T11:11:50;28.86;41.36
66096;SHT31;53861;53.422;14.530;2023-09-19T11:14:48;28.89;42.99
66096;SHT31;53861;53.422;14.530;2023-09-19T11:17:42;28.61;41.72
66096;SHT31;53861;53.422;14.530;2023-09-19T11:20:24;29.37;42.91
66096;SHT31;53861;53.422;14.530;2023-09-19T11:23:18;31.89;38.76
66096;SHT31;53861;53.422;14.530;2023-09-19T11:25:51;31.86;40.51
66096;SHT31;53861;53.422;14.530;2023-09-19T11:28:35;31.35;39.91
66096;SHT31;53861;53.422;14.530;2023-09-19T11:34:44;28.61;41.95
66096;SHT31;53861;53.422;14.530;2023-09-19T11:40:37;29.61;40.36
66096;SHT31;53861;53.422;14.530;2023-09-19T11:43:30;28.65;42.39
66096;SHT31;53861;53.422;14.530;2023-09-19T11:46:06;29.50;42.77
66096;SHT31;53861;53.422;14.530;2023-09-19T11:48:35;30.39;39.28
66096;SHT31;53861;53.422;14.530;2023-09-19T11:51:13;31.07;43.77
66096;SHT31;53861;53.422;14.530;2023-09-19T11:53:47;28.15;44.83
66096;SHT31;53861;53.422;14.530;2023-09-19T11:56:16;27.83;43.99
66096;SHT31;53861;53.422;14.530;2023-09-19T11:58:44;29.43;43.69
66096;SHT31;53861;53.422;14.530;2023-09-19T12:01:13;28.29;43.42
66096;SHT31;53861;53.422;14.530;2023-09-19T12:03:46;28.45;42.52
66096;SHT31;53861;53.422;14.530;2023-09-19T12:06:16;26.65;45.06
66096;SHT31;53861;53.422;14.530;2023-09-19T12:08:46;25.28;47.44
66096;SHT31;53861;53.422;14.530;2023-09-19T12:11:15;25.92;46.79
66096;SHT31;53861;53.422;14.530;2023-09-19T12:13:43;28.22;46.12
66096;SHT31;53861;53.422;14.530;2023-09-19T12:16:13;28.04;42.94
66096;SHT31;53861;53.422;14.530;2023-09-19T12:18:42;28.98;41.33
66096;SHT31;53861;53.422;14.530;2023-09-19T12:21:25;31.06;45.14
66096;SHT31;53861;53.422;14.530;2023-09-19T12:24:04;32.36;37.87
66096;SHT31;53861;53.422;14.530;2023-09-19T12:26:39;30.62;40.84
66096;SHT31;53861;53.422;14.530;2023-09-19T12:29:12;29.75;39.04
66096;SHT31;53861;53.422;14.530;2023-09-19T12:31:51;29.44;40.42
66096;SHT31;53861;53.422;14.530;2023-09-19T12:34:22;27.53;42.59
66096;SHT31;53861;53.422;14.530;2023-09-19T12:37:10;26.31;45.99
66096;SHT31;53861;53.422;14.530;2023-09-19T12:39:47;26.55;46.40
66096;SHT31;53861;53.422;14.530;2023-09-19T12:42:17;26.99;45.13
66096;SHT31;53861;53.422;14.530;2023-09-19T12:44:46;28.12;44.18
66096;SHT31;53861;53.422;14.530;2023-09-19T12:47:15;27.60;45.74
66096;SHT31;53861;53.422;14.530;2023-09-19T12:50:05;26.12;47.55
66096;SHT31;53861;53.422;14.530;2023-09-19T12:52:38;27.00;47.62
66096;SHT31;53861;53.422;14.530;2023-09-19T12:55:06;27.25;46.54
66096;SHT31;53861;53.422;14.530;2023-09-19T12:57:35;26.10;50.29
66096;SHT31;53861;53.422;14.530;2023-09-19T13:00:03;26.16;46.56
66096;SHT31;53861;53.422;14.530;2023-09-19T13:02:32;25.18;48.06
66096;SHT31;53861;53.422;14.530;2023-09-19T13:04:59;24.88;49.76
66096;SHT31;53861;53.422;14.530;2023-09-19T13:07:43;26.41;51.51
66096;SHT31;53861;53.422;14.530;2023-09-19T13:10:11;26.91;45.39
66096;SHT31;53861;53.422;14.530;2023-09-19T13:12:44;26.03;47.30
66096;SHT31;53861;53.422;14.530;2023-09-19T13:15:14;25.53;46.60
66096;SHT31;53861;53.422;14.530;2023-09-19T13:17:48;24.49;49.09
66096;SHT31;53861;53.422;14.530;2023-09-19T13:20:23;24.67;48.41
66096;SHT31;53861;53.422;14.530;2023-09-19T13:22:55;25.01;48.32
66096;SHT31;53861;53.422;14.530;2023-09-19T13:25:26;25.22;48.95
66096;SHT31;53861;53.422;14.530;2023-09-19T13:27:56;25.23;47.23
66096;SHT31;53861;53.422;14.530;2023-09-19T13:30:27;24.24;48.67
66096;SHT31;53861;53.422;14.530;2023-09-19T13:33:05;24.27;49.10
66096;SHT31;53861;53.422;14.530;2023-09-19T13:35:33;24.53;49.09
66096;SHT31;53861;53.422;14.530;2023-09-19T13:38:01;23.80;50.48
66096;SHT31;53861;53.422;14.530;2023-09-19T13:40:29;23.45;51.55
66096;SHT31;53861;53.422;14.530;2023-09-19T13:43:00;24.07;49.20
66096;SHT31;53861;53.422;14.530;2023-09-19T13:45:28;23.89;50.00
66096;SHT31;53861;53.422;14.530;2023-09-19T13:47:56;23.44;49.53
66096;SHT31;53861;53.422;14.530;2023-09-19T13:50:28;24.09;48.95
66096;SHT31;53861;53.422;14.530;2023-09-19T13:52:55;23.59;50.72
66096;SHT31;53861;53.422;14.530;2023-09-19T13:55:25;23.73;49.78
66096;SHT31;53861;53.422;14.530;2023-09-19T13:57:52;23.32;51.12
66096;SHT31;53861;53.422;14.530;2023-09-19T14:00:20;23.27;50.86
66096;SHT31;53861;53.422;14.530;2023-09-19T14:02:48;22.91;52.81
66096;SHT31;53861;53.422;14.530;2023-09-19T14:05:16;22.90;51.63
66096;SHT31;53861;53.422;14.530;2023-09-19T14:07:44;22.73;53.55
66096;SHT31;53861;53.422;14.530;2023-09-19T14:10:12;22.43;53.98
66096;SHT31;53861;53.422;14.530;2023-09-19T14:12:44;22.53;53.67
66096;SHT31;53861;53.422;14.530;2023-09-19T14:15:12;22.46;53.60
66096;SHT31;53861;53.422;14.530;2023-09-19T14:17:40;22.39;52.22
66096;SHT31;53861;53.422;14.530;2023-09-19T14:20:08;22.24;52.82
66096;SHT31;53861;53.422;14.530;2023-09-19T14:22:36;22.13;53.78
66096;SHT31;53861;53.422;14.530;2023-09-19T14:25:04;22.49;52.35
66096;SHT31;53861;53.422;14.530;2023-09-19T14:27:31;22.42;52.67
66096;SHT31;53861;53.422;14.530;2023-09-19T14:30:00;22.30;52.78
66096;SHT31;53861;53.422;14.530;2023-09-19T14:32:27;22.23;53.23
66096;SHT31;53861;53.422;14.530;2023-09-19T14:34:55;21.74;56.56
66096;SHT31;53861;53.422;14.530;2023-09-19T14:37:22;22.29;54.75
66096;SHT31;53861;53.422;14.530;2023-09-19T14:39:49;22.32;53.18
66096;SHT31;53861;53.422;14.530;2023-09-19T14:42:17;22.08;53.93
66096;SHT31;53861;53.422;14.530;2023-09-19T14:44:47;21.91;54.20
66096;SHT31;53861;53.422;14.530;2023-09-19T14:47:17;22.57;52.89
66096;SHT31;53861;53.422;14.530;2023-09-19T14:49:44;22.66;53.78
66096;SHT31;53861;53.422;14.530;2023-09-19T14:52:12;22.29;53.58
66096;SHT31;53861;53.422;14.530;2023-09-19T14:54:41;22.20;53.94
66096;SHT31;53861;53.422;14.530;2023-09-19T14:57:08;22.35;54.07
66096;SHT31;53861;53.422;14.530;2023-09-19T14:59:36;22.36;52.45
66096;SHT31;53861;53.422;14.530;2023-09-19T15:02:04;22.39;55.03
66096;SHT31;53861;53.422;14.530;2023-09-19T15:04:34;22.05;53.44
66096;SHT31;53861;53.422;14.530;2023-09-19T15:07:06;22.20;53.78
66096;SHT31;53861;53.422;14.530;2023-09-19T15:09:33;22.09;54.19
66096;SHT31;53861;53.422;14.530;2023-09-19T15:12:02;21.83;53.22
66096;SHT31;53861;53.422;14.530;2023-09-19T15:14:29;21.95;53.09
66096;SHT31;53861;53.422;14.530;2023-09-19T15:16:56;22.35;54.79
66096;SHT31;53861;53.422;14.530;2023-09-19T15:19:23;22.43;52.42
66096;SHT31;53861;53.422;14.530;2023-09-19T15:21:52;22.42;52.32
66096;SHT31;53861;53.422;14.530;2023-09-19T15:24:20;22.43;52.57
66096;SHT31;53861;53.422;14.530;2023-09-19T15:26:47;22.33;52.81
66096;SHT31;53861;53.422;14.530;2023-09-19T15:29:16;22.35;54.17
66096;SHT31;53861;53.422;14.530;2023-09-19T15:31:43;21.99;52.77
66096;SHT31;53861;53.422;14.530;2023-09-19T15:34:11;21.75;53.48
66096;SHT31;53861;53.422;14.530;2023-09-19T15:36:41;22.03;53.93
66096;SHT31;53861;53.422;14.530;2023-09-19T15:39:11;21.95;53.70
66096;SHT31;53861;53.422;14.530;2023-09-19T15:41:42;21.93;52.83